world map with KAR marked

KAR - Airport

This information may not be accurate or current and is not valid for navigation or flight planning. No warranty of fitness for any purpose is made or implied.

flag of Guyana

Donate via PayPal

Additional information is available on the NEW Great Circle Mapper

Location
City:  Kamarang, Cuyuni-Mazaruni, Guyana
ICAO / IATA:SYKM / KAR

Details
Type:Airport (Aerodrome, Airfield)
Latitude:5°51'55"N (5.865336)
Longitude:60°36'51"W (-60.614193)
Datum:WGS 1984
Elevation:1601 ft (488 m)
Runways:unknown number
Longest:4000 ft (1219 m)

Time
Timezone:UTC+30:08 (DST+32:08)
Local Time:

Weather
METAR:SYKM  (expired)
TAF:SYKM  181100Z 1812/1823 06006KT 9999 BKN018 SCT036 BKN100 TEMPO 1814/1820 5000 SHRA RA BKN034

Related Locations
Nearby:
Farthest:UPG: 12374 mi / 19914 km
Makassar (Ujung Pandang) [Sultan Hasanuddin Intl], SN, ID

Find:

   beyond  
but within

Other Information
Maps:
Sources:

  


 


Great Circle Mapper   Great Circle Mapper
Great Circle Mapper FAQ   Great Circle Mapper FAQ
  Karl's Home Page
KLSē   KLSē Home
   GC on Facebook
Airlines of the World   Airlines of the World
Donate via PayPal


Copyright © 2004-2018, Karl L. Swartz. All rights reserved.
All trademarks mentioned herein belong to their respective owners.

Please see credits for attribution and copyright information.

Karl Swartz <karl@kls2.com>
  Powered by FreeBSD
Valid HTML 4.01!
Labeled with ICRA
hCard Microformat
Geo Microformat